Time,TemperatureF,DewpointF,PressureIn,WindDirection,WindDirectionDegrees,WindSpeedMPH,WindSpeedGustMPH,Humidity,HourlyPrecipIn,Conditions,Clouds,dailyrainin,SolarRadiationWatts/m^2,SoftwareType,DateUTC
2013-09-05 00:13:00,74.0,72.0,-100.00,NE,37,6.0,-999.0,94,0.00,,,-99.99,2.800000,,2013-09-05 04:13:00,
2013-09-05 00:24:00,74.0,72.0,-100.00,NE,37,6.0,-999.0,94,0.00,,,-99.99,2.800000,,2013-09-05 04:24:00,
2013-09-05 00:44:00,74.0,72.0,-100.00,NE,48,5.0,-999.0,94,0.00,,,-99.99,2.800000,,2013-09-05 04:44:00,
2013-09-05 00:53:00,74.0,72.0,-100.00,ENE,77,6.0,-999.0,94,0.00,,,-99.99,2.800000,,2013-09-05 04:53:00,
2013-09-05 01:13:00,74.0,72.0,-100.00,ENE,75,4.0,-999.0,93,0.00,,,-99.99,2.800000,,2013-09-05 05:13:00,
2013-09-05 01:23:00,73.0,71.0,-100.00,North,357,2.0,-999.0,93,0.00,,,-99.99,2.800000,,2013-09-05 05:23:00,
2013-09-05 01:43:00,73.0,71.0,-100.00,NNE,18,2.0,-999.0,93,0.00,,,-99.99,2.800000,,2013-09-05 05:43:00,
2013-09-05 01:52:00,73.0,71.0,-100.00,NE,54,3.0,-999.0,92,0.00,,,-99.99,2.800000,,2013-09-05 05:52:00,
2013-09-05 02:13:00,74.0,71.0,-100.00,NE,44,3.0,-999.0,92,0.00,,,-99.99,2.800000,,2013-09-05 06:13:00,
2013-09-05 02:22:00,73.0,71.0,-100.00,NE,54,2.0,-999.0,92,0.00,,,-99.99,2.800000,,2013-09-05 06:22:00,
2013-09-05 02:42:00,73.0,71.0,-100.00,North,11,2.0,-999.0,92,0.00,,,-99.99,2.800000,,2013-09-05 06:42:00,
2013-09-05 02:52:00,72.0,70.0,-100.00,North,359,3.0,-999.0,93,0.00,,,-99.99,2.800000,,2013-09-05 06:52:00,
2013-09-05 03:01:00,72.0,70.0,-100.00,North,359,3.0,-999.0,93,0.00,,,-99.99,2.800000,,2013-09-05 07:01:00,
2013-09-05 03:12:00,72.0,70.0,-100.00,North,359,3.0,-999.0,93,0.00,,,-99.99,2.800000,,2013-09-05 07:12:00,
2013-09-05 03:23:00,73.0,71.0,-100.00,North,2,5.0,-999.0,93,0.00,,,-99.99,2.800000,,2013-09-05 07:23:00,
2013-09-05 03:52:00,73.0,71.0,-100.00,North,2,5.0,-999.0,93,0.00,,,-99.99,2.800000,,2013-09-05 07:52:00,
2013-09-05 04:03:00,73.0,71.0,-100.00,North,2,5.0,-999.0,93,0.00,,,-99.99,2.800000,,2013-09-05 08:03:00,
2013-09-05 04:12:00,73.0,71.0,-100.00,North,2,5.0,-999.0,93,0.00,,,-99.99,2.800000,,2013-09-05 08:12:00,
2013-09-05 04:22:00,73.0,71.0,-100.00,NNE,14,4.0,-999.0,94,0.00,,,-99.99,2.800000,,2013-09-05 08:22:00,
2013-09-05 04:30:00,73.0,72.0,-100.00,NNE,13,5.0,-999.0,94,0.00,,,-99.99,2.800000,,2013-09-05 08:30:00,
2013-09-05 04:52:00,73.0,72.0,-100.00,NNE,13,5.0,-999.0,94,0.00,,,-99.99,2.800000,,2013-09-05 08:52:00,
2013-09-05 05:03:00,73.0,72.0,-100.00,NNE,13,5.0,-999.0,94,0.00,,,-99.99,2.800000,,2013-09-05 09:03:00,
2013-09-05 05:11:00,73.0,72.0,-100.00,NNE,13,5.0,-999.0,94,0.00,,,-99.99,2.800000,,2013-09-05 09:11:00,
2013-09-05 05:22:00,73.0,72.0,-100.00,NNE,13,5.0,-999.0,94,0.00,,,-99.99,2.800000,,2013-09-05 09:22:00,
2013-09-05 08:42:00,75.0,73.0,-100.00,NE,38,5.0,-999.0,94,0.00,,,-99.99,47.500000,,2013-09-05 12:42:00,
2013-09-05 08:52:00,75.0,73.0,-100.00,NE,38,5.0,-999.0,94,0.00,,,-99.99,47.500000,,2013-09-05 12:52:00,
2013-09-05 10:52:00,84.0,79.0,-100.00,ENE,74,7.0,-999.0,85,0.00,,,-99.99,619.500000,,2013-09-05 14:52:00,
2013-09-05 11:11:00,84.0,78.0,-100.00,East,82,7.0,-999.0,83,0.00,,,-99.99,458.700012,,2013-09-05 15:11:00,
2013-09-05 11:22:00,85.0,79.0,-100.00,East,84,6.0,-999.0,81,0.00,,,-99.99,575.299988,,2013-09-05 15:22:00,
2013-09-05 11:54:00,86.0,79.0,-100.00,ESE,103,8.0,-999.0,77,0.00,,,-99.99,792.000000,,2013-09-05 15:54:00,
2013-09-05 12:03:00,86.0,79.0,-100.00,ESE,103,8.0,-999.0,77,0.00,,,-99.99,792.000000,,2013-09-05 16:03:00,
2013-09-05 12:13:00,86.0,79.0,-100.00,ESE,103,8.0,-999.0,77,0.00,,,-99.99,792.000000,,2013-09-05 16:13:00,
2013-09-05 12:24:00,87.0,77.0,-100.00,ESE,110,7.0,-999.0,71,0.00,,,-99.99,531.400024,,2013-09-05 16:24:00,
2013-09-05 12:43:00,87.0,77.0,-100.00,East,100,5.0,-999.0,72,0.00,,,-99.99,482.899994,,2013-09-05 16:43:00,
2013-09-05 12:54:00,88.0,77.0,-100.00,ESE,116,5.0,-999.0,70,0.00,,,-99.99,572.799988,,2013-09-05 16:54:00,
2013-09-05 13:12:00,88.0,76.0,-100.00,SSE,148,7.0,-999.0,69,0.00,,,-99.99,599.500000,,2013-09-05 17:12:00,
2013-09-05 13:23:00,88.0,76.0,-100.00,SE,136,6.0,-999.0,68,0.00,,,-99.99,584.200012,,2013-09-05 17:23:00,
2013-09-05 13:43:00,89.0,76.0,-100.00,SE,139,6.0,-999.0,66,0.00,,,-99.99,549.400024,,2013-09-05 17:43:00,
2013-09-05 13:52:00,89.0,76.0,-100.00,SE,139,6.0,-999.0,66,0.00,,,-99.99,549.400024,,2013-09-05 17:52:00,
2013-09-05 14:12:00,89.0,76.0,-100.00,ENE,63,5.0,-999.0,64,0.00,,,-99.99,671.799988,,2013-09-05 18:12:00,
2013-09-05 14:22:00,90.0,75.0,-100.00,East,99,4.0,-999.0,63,0.00,,,-99.99,628.200012,,2013-09-05 18:22:00,
2013-09-05 14:42:00,90.0,75.0,-100.00,ENE,59,4.0,-999.0,62,0.00,,,-99.99,519.000000,,2013-09-05 18:42:00,
2013-09-05 14:52:00,91.0,76.0,-100.00,SE,137,3.0,-999.0,61,0.00,,,-99.99,890.000000,,2013-09-05 18:52:00,
2013-09-05 15:11:00,91.0,76.0,-100.00,ENE,67,4.0,-999.0,61,0.00,,,-99.99,477.899994,,2013-09-05 19:11:00,
2013-09-05 15:22:00,91.0,75.0,-100.00,ENE,76,5.0,-999.0,60,0.00,,,-99.99,431.299988,,2013-09-05 19:22:00,
2013-09-05 15:52:00,91.0,75.0,-100.00,ENE,63,6.0,-999.0,60,0.00,,,-99.99,625.599976,,2013-09-05 19:52:00,
2013-09-05 16:03:00,91.0,75.0,-100.00,ENE,63,6.0,-999.0,60,0.00,,,-99.99,625.599976,,2013-09-05 20:03:00,
2013-09-05 16:11:00,91.0,75.0,-100.00,ENE,63,6.0,-999.0,60,0.00,,,-99.99,625.599976,,2013-09-05 20:11:00,
2013-09-05 16:22:00,90.0,74.0,-100.00,ESE,109,8.0,-999.0,60,0.00,,,-99.99,173.800003,,2013-09-05 20:22:00,
2013-09-05 17:22:00,84.0,76.0,-100.00,SSW,211,5.0,-999.0,78,0.00,,,-99.99,334.899994,,2013-09-05 21:22:00,
2013-09-05 17:54:00,89.0,77.0,-100.00,SSE,148,7.0,-999.0,68,0.00,,,-99.99,531.000000,,2013-09-05 21:54:00,
2013-09-05 18:13:00,89.0,75.0,-100.00,SE,146,10.0,-999.0,64,0.00,,,-99.99,500.500000,,2013-09-05 22:13:00,
2013-09-05 18:24:00,87.0,75.0,-100.00,SE,141,6.0,-999.0,67,0.00,,,-99.99,269.500000,,2013-09-05 22:24:00,
2013-09-05 18:33:00,87.0,75.0,-100.00,SE,141,6.0,-999.0,67,0.00,,,-99.99,269.500000,,2013-09-05 22:33:00,
2013-09-05 18:53:00,87.0,76.0,-100.00,East,88,6.0,-999.0,70,0.00,,,-99.99,126.099998,,2013-09-05 22:53:00,
2013-09-05 19:12:00,86.0,76.0,-100.00,SE,126,7.0,-999.0,74,0.00,,,-99.99,37.700001,,2013-09-05 23:12:00,
2013-09-05 19:22:00,83.0,75.0,-100.00,NE,46,7.0,-999.0,78,0.00,,,-99.99,27.799999,,2013-09-05 23:22:00,
2013-09-05 19:42:00,80.0,73.0,-100.00,NE,38,7.0,-999.0,80,0.00,,,-99.99,10.400000,,2013-09-05 23:42:00,
2013-09-05 19:53:00,80.0,73.0,-100.00,NNE,25,7.0,-999.0,80,0.00,,,-99.99,6.000000,,2013-09-05 23:53:00,
2013-09-05 20:22:00,78.0,73.0,-100.00,NNE,18,6.0,-999.0,84,0.00,,,-99.99,3.000000,,2013-09-06 00:22:00,
2013-09-05 20:52:00,78.0,74.0,-100.00,North,10,5.0,-999.0,87,0.00,,,-99.99,2.500000,,2013-09-06 00:52:00,
2013-09-05 21:11:00,78.0,74.0,-100.00,North,350,5.0,-999.0,87,0.00,,,-99.99,2.700000,,2013-09-06 01:11:00,
2013-09-05 21:22:00,78.0,74.0,-100.00,NNE,25,4.0,-999.0,88,0.00,,,-99.99,2.700000,,2013-09-06 01:22:00,
2013-09-05 21:52:00,78.0,75.0,-100.00,NE,50,4.0,-999.0,90,0.03,,,-99.99,2.700000,,2013-09-06 01:52:00,
2013-09-05 22:12:00,78.0,76.0,-100.00,ENE,60,3.0,-999.0,91,0.00,,,-99.99,2.700000,,2013-09-06 02:12:00,
2013-09-05 22:22:00,78.0,75.0,-100.00,NNE,32,5.0,-999.0,92,0.00,,,-99.99,2.700000,,2013-09-06 02:22:00,
2013-09-05 22:52:00,77.0,74.0,-100.00,NNE,29,4.0,-999.0,92,0.00,,,-99.99,2.500000,,2013-09-06 02:52:00,
2013-09-05 23:11:00,76.0,74.0,-100.00,NE,46,4.0,-999.0,92,0.00,,,-99.99,2.500000,,2013-09-06 03:11:00,
2013-09-05 23:22:00,76.0,73.0,-100.00,NE,51,4.0,-999.0,92,0.00,,,-99.99,2.500000,,2013-09-06 03:22:00,
2013-09-05 23:55:00,76.0,73.0,-100.00,NE,40,4.0,-999.0,92,0.00,,,-99.99,2.400000,,2013-09-06 03:55:00,